QFA23 YSSY-YMML
Flight info
| Callsign | QFA23 |
|---|---|
| Flight time | 1h 9m |
| Altitude | 32000 |
| Route | MARUB7 WOL H65 LEECE Q29 ML DCT |
| Aircraft | B738/M-SDE2E3FGHIRWXY/LB1 |
Departure
| Time | 2026-04-26 05:17 |
|---|---|
| Airport | Sydney Kingsford Smith International Airport (YSSY) |
Arrival
| Time | 2026-04-26 06:26 |
|---|---|
| Airport | Melbourne Airport (YMML) |
| Time | Latitude | Longitude | Altitude | Speed | Heading |
|---|---|---|---|---|---|
| 2026-04-26 04:48 | -33.93489 | 151.17794 | 29 ft | 0 kts | 279° |
| 2026-04-26 05:00 | -33.93492 | 151.17816 | 29 ft | 3 kts | 266° |
| 2026-04-26 05:00 | -33.93484 | 151.17835 | 30 ft | 3 kts | 201° |
| 2026-04-26 05:00 | -33.93479 | 151.17837 | 30 ft | 0 kts | 193° |
| 2026-04-26 05:04 | -33.93489 | 151.17835 | 30 ft | 4 kts | 189° |
| 2026-04-26 05:05 | -33.93532 | 151.17832 | 30 ft | 8 kts | 181° |
| 2026-04-26 05:05 | -33.93601 | 151.17823 | 30 ft | 11 kts | 188° |
| 2026-04-26 05:05 | -33.93688 | 151.17805 | 29 ft | 14 kts | 190° |
| 2026-04-26 05:05 | -33.93806 | 151.17782 | 22 ft | 22 kts | 189° |
| 2026-04-26 05:06 | -33.93958 | 151.17795 | 21 ft | 22 kts | 166° |
| 2026-04-26 05:06 | -33.94106 | 151.17833 | 22 ft | 21 kts | 167° |
| 2026-04-26 05:06 | -33.94247 | 151.17871 | 25 ft | 21 kts | 168° |
| 2026-04-26 05:06 | -33.94386 | 151.17905 | 26 ft | 20 kts | 169° |
| 2026-04-26 05:07 | -33.94521 | 151.17885 | 22 ft | 18 kts | 180° |
| 2026-04-26 05:07 | -33.94646 | 151.17916 | 25 ft | 19 kts | 168° |
| 2026-04-26 05:07 | -33.94783 | 151.17951 | 20 ft | 21 kts | 165° |
| 2026-04-26 05:07 | -33.94930 | 151.17989 | 21 ft | 22 kts | 168° |
| 2026-04-26 05:08 | -33.95069 | 151.18027 | 27 ft | 19 kts | 156° |
| 2026-04-26 05:08 | -33.95092 | 151.18165 | 24 ft | 18 kts | 77° |
| 2026-04-26 05:08 | -33.95065 | 151.18312 | 24 ft | 18 kts | 77° |
| 2026-04-26 05:08 | -33.95044 | 151.18453 | 25 ft | 17 kts | 92° |
| 2026-04-26 05:09 | -33.95124 | 151.18550 | 27 ft | 18 kts | 137° |
| 2026-04-26 05:09 | -33.95223 | 151.18658 | 26 ft | 20 kts | 139° |
| 2026-04-26 05:09 | -33.95360 | 151.18733 | 25 ft | 24 kts | 168° |
| 2026-04-26 05:09 | -33.95535 | 151.18779 | 23 ft | 27 kts | 167° |
| 2026-04-26 05:10 | -33.95716 | 151.18826 | 25 ft | 27 kts | 167° |
| 2026-04-26 05:10 | -33.95905 | 151.18875 | 26 ft | 29 kts | 168° |
| 2026-04-26 05:10 | -33.96111 | 151.18929 | 26 ft | 32 kts | 167° |
| 2026-04-26 05:10 | -33.96331 | 151.18986 | 27 ft | 34 kts | 167° |
| 2026-04-26 05:11 | -33.96574 | 151.19049 | 18 ft | 37 kts | 167° |
| 2026-04-26 05:11 | -33.96793 | 151.19069 | 18 ft | 29 kts | 182° |
| 2026-04-26 05:11 | -33.96980 | 151.19110 | 19 ft | 25 kts | 167° |
| 2026-04-26 05:11 | -33.97097 | 151.19140 | 20 ft | 14 kts | 165° |
| 2026-04-26 05:12 | -33.97130 | 151.19224 | 20 ft | 12 kts | 78° |
| 2026-04-26 05:12 | -33.97124 | 151.19256 | 20 ft | 0 kts | 77° |
| 2026-04-26 05:14 | -33.97123 | 151.19257 | 20 ft | 1 kts | 77° |
| 2026-04-26 05:14 | -33.97118 | 151.19286 | 21 ft | 6 kts | 77° |
| 2026-04-26 05:14 | -33.97096 | 151.19348 | 21 ft | 9 kts | 51° |
| 2026-04-26 05:15 | -33.97040 | 151.19369 | 20 ft | 9 kts | 354° |
| 2026-04-26 05:15 | -33.97019 | 151.19364 | 19 ft | 0 kts | 348° |
| 2026-04-26 05:16 | -33.96988 | 151.19356 | 19 ft | 23 kts | 348° |
| 2026-04-26 05:16 | -33.96594 | 151.19255 | 19 ft | 91 kts | 348° |
| 2026-04-26 05:16 | -33.95796 | 151.19045 | 29 ft | 145 kts | 348° |
| 2026-04-26 05:17 | -33.94704 | 151.18760 | 361 ft | 167 kts | 352° |
| 2026-04-26 05:17 | -33.93557 | 151.18459 | 987 ft | 173 kts | 357° |
| 2026-04-26 05:17 | -33.92383 | 151.18677 | 1616 ft | 178 kts | 31° |
| 2026-04-26 05:17 | -33.91527 | 151.19826 | 2103 ft | 195 kts | 67° |
| 2026-04-26 05:18 | -33.91425 | 151.21460 | 2738 ft | 205 kts | 105° |
| 2026-04-26 05:18 | -33.92168 | 151.22958 | 3385 ft | 210 kts | 117° |
| 2026-04-26 05:18 | -33.92801 | 151.24546 | 4009 ft | 213 kts | 111° |
| 2026-04-26 05:18 | -33.93457 | 151.26146 | 4670 ft | 212 kts | 114° |
| 2026-04-26 05:19 | -33.93851 | 151.27840 | 5164 ft | 217 kts | 88° |
| 2026-04-26 05:19 | -33.93765 | 151.29744 | 5358 ft | 238 kts | 86° |
| 2026-04-26 05:19 | -33.93680 | 151.31799 | 5677 ft | 255 kts | 86° |
| 2026-04-26 05:19 | -33.93599 | 151.34035 | 6031 ft | 272 kts | 86° |
| 2026-04-26 05:20 | -33.93523 | 151.36328 | 6780 ft | 275 kts | 87° |
| 2026-04-26 05:20 | -33.93452 | 151.38617 | 7575 ft | 275 kts | 87° |
| 2026-04-26 05:20 | -33.93405 | 151.40145 | 8043 ft | 277 kts | 87° |
| 2026-04-26 05:20 | -33.93313 | 151.43243 | 8981 ft | 282 kts | 88° |
| 2026-04-26 05:21 | -33.93242 | 151.45618 | 9679 ft | 285 kts | 88° |
| 2026-04-26 05:21 | -33.93195 | 151.47216 | 10140 ft | 288 kts | 88° |
| 2026-04-26 05:21 | -33.93436 | 151.50414 | 11021 ft | 292 kts | 113° |
| 2026-04-26 05:21 | -33.94621 | 151.52387 | 11678 ft | 295 kts | 139° |
| 2026-04-26 05:22 | -33.96406 | 151.53629 | 12238 ft | 305 kts | 163° |
| 2026-04-26 05:22 | -33.97829 | 151.53883 | 12333 ft | 320 kts | 182° |
| 2026-04-26 05:22 | -34.00037 | 151.53208 | 12515 ft | 341 kts | 207° |
| 2026-04-26 05:22 | -34.01996 | 151.51481 | 12710 ft | 359 kts | 224° |
| 2026-04-26 05:23 | -34.04317 | 151.48511 | 13325 ft | 371 kts | 228° |
| 2026-04-26 05:23 | -34.05472 | 151.46929 | 13792 ft | 373 kts | 229° |
| 2026-04-26 05:23 | -34.07187 | 151.44557 | 14424 ft | 376 kts | 229° |
| 2026-04-26 05:23 | -34.08923 | 151.42166 | 15025 ft | 381 kts | 228° |
| 2026-04-26 05:24 | -34.10661 | 151.39795 | 15601 ft | 386 kts | 228° |
| 2026-04-26 05:24 | -34.12457 | 151.37367 | 16241 ft | 389 kts | 227° |
| 2026-04-26 05:24 | -34.14278 | 151.34920 | 16824 ft | 393 kts | 227° |
| 2026-04-26 05:24 | -34.16119 | 151.32457 | 17495 ft | 396 kts | 227° |
| 2026-04-26 05:25 | -34.17978 | 151.29972 | 18175 ft | 397 kts | 227° |
| 2026-04-26 05:25 | -34.19832 | 151.27477 | 18712 ft | 403 kts | 228° |
| 2026-04-26 05:25 | -34.21689 | 151.24935 | 19273 ft | 405 kts | 228° |
| 2026-04-26 05:25 | -34.23566 | 151.22369 | 19794 ft | 409 kts | 228° |
| 2026-04-26 05:26 | -34.25468 | 151.19789 | 20305 ft | 412 kts | 228° |
| 2026-04-26 05:26 | -34.27389 | 151.17202 | 20852 ft | 415 kts | 227° |
| 2026-04-26 05:26 | -34.29308 | 151.14630 | 21336 ft | 418 kts | 227° |
| 2026-04-26 05:26 | -34.31267 | 151.12010 | 21854 ft | 421 kts | 227° |
| 2026-04-26 05:27 | -34.33243 | 151.09371 | 22321 ft | 424 kts | 227° |
| 2026-04-26 05:27 | -34.35235 | 151.06709 | 22752 ft | 429 kts | 227° |
| 2026-04-26 05:27 | -34.37243 | 151.04025 | 23250 ft | 432 kts | 228° |
| 2026-04-26 05:27 | -34.39273 | 151.01308 | 23638 ft | 436 kts | 228° |
| 2026-04-26 05:28 | -34.41307 | 150.98583 | 24142 ft | 437 kts | 228° |
| 2026-04-26 05:28 | -34.43342 | 150.95856 | 24626 ft | 437 kts | 228° |
| 2026-04-26 05:28 | -34.45392 | 150.93106 | 24968 ft | 440 kts | 228° |
| 2026-04-26 05:28 | -34.47449 | 150.90342 | 25337 ft | 443 kts | 228° |
| 2026-04-26 05:29 | -34.49518 | 150.87560 | 25718 ft | 445 kts | 228° |
| 2026-04-26 05:29 | -34.51566 | 150.84805 | 26119 ft | 446 kts | 228° |
| 2026-04-26 05:29 | -34.53645 | 150.82006 | 26527 ft | 447 kts | 228° |
| 2026-04-26 05:29 | -34.55729 | 150.79197 | 26907 ft | 449 kts | 229° |
| 2026-04-26 05:30 | -34.57724 | 150.76264 | 27248 ft | 451 kts | 232° |
| 2026-04-26 05:30 | -34.59592 | 150.73203 | 27581 ft | 453 kts | 234° |
| 2026-04-26 05:30 | -34.61426 | 150.70068 | 27918 ft | 455 kts | 235° |
| 2026-04-26 05:30 | -34.63253 | 150.66918 | 28250 ft | 457 kts | 235° |
| 2026-04-26 05:31 | -34.65096 | 150.63763 | 28616 ft | 458 kts | 234° |
| 2026-04-26 05:31 | -34.66948 | 150.60625 | 29116 ft | 455 kts | 234° |
| 2026-04-26 05:31 | -34.68794 | 150.57523 | 29708 ft | 451 kts | 234° |
| 2026-04-26 05:31 | -34.70639 | 150.54440 | 30208 ft | 449 kts | 234° |
| 2026-04-26 05:32 | -34.72477 | 150.51373 | 30592 ft | 449 kts | 234° |
| 2026-04-26 05:32 | -34.74313 | 150.48310 | 30974 ft | 447 kts | 234° |
| 2026-04-26 05:32 | -34.76144 | 150.45254 | 31347 ft | 446 kts | 234° |
| 2026-04-26 05:32 | -34.77967 | 150.42208 | 31746 ft | 445 kts | 234° |
| 2026-04-26 05:33 | -34.79760 | 150.39208 | 32133 ft | 442 kts | 234° |
| 2026-04-26 05:33 | -34.81579 | 150.36161 | 32194 ft | 444 kts | 234° |
| 2026-04-26 05:33 | -34.85209 | 150.30071 | 32217 ft | 445 kts | 234° |
| 2026-04-26 05:34 | -34.88840 | 150.23969 | 32217 ft | 444 kts | 234° |
| 2026-04-26 05:34 | -34.92458 | 150.17878 | 32214 ft | 443 kts | 234° |
| 2026-04-26 05:35 | -34.96045 | 150.11829 | 32219 ft | 442 kts | 234° |
| 2026-04-26 05:35 | -34.99650 | 150.05739 | 32221 ft | 442 kts | 234° |
| 2026-04-26 05:36 | -35.03253 | 149.99642 | 32217 ft | 441 kts | 234° |
| 2026-04-26 05:36 | -35.06815 | 149.93608 | 32220 ft | 441 kts | 234° |
| 2026-04-26 05:37 | -35.10410 | 149.87517 | 32216 ft | 441 kts | 234° |
| 2026-04-26 05:37 | -35.13992 | 149.81441 | 32226 ft | 441 kts | 235° |
| 2026-04-26 05:38 | -35.17572 | 149.75355 | 32227 ft | 441 kts | 235° |
| 2026-04-26 05:38 | -35.21146 | 149.69266 | 32222 ft | 441 kts | 235° |
| 2026-04-26 05:39 | -35.24724 | 149.63162 | 32219 ft | 441 kts | 235° |
| 2026-04-26 05:39 | -35.28267 | 149.57104 | 32227 ft | 441 kts | 235° |
| 2026-04-26 05:40 | -35.31840 | 149.50986 | 32229 ft | 441 kts | 235° |
| 2026-04-26 05:40 | -35.35401 | 149.44878 | 32229 ft | 441 kts | 235° |
| 2026-04-26 05:41 | -35.38960 | 149.38763 | 32230 ft | 440 kts | 235° |
| 2026-04-26 05:41 | -35.42515 | 149.32644 | 32233 ft | 440 kts | 235° |
| 2026-04-26 05:42 | -35.46065 | 149.26522 | 32237 ft | 440 kts | 235° |
| 2026-04-26 05:42 | -35.49586 | 149.20440 | 32234 ft | 440 kts | 235° |
| 2026-04-26 05:43 | -35.53132 | 149.14304 | 32228 ft | 440 kts | 235° |
| 2026-04-26 05:43 | -35.56674 | 149.08163 | 32229 ft | 441 kts | 235° |
| 2026-04-26 05:44 | -35.60217 | 149.02011 | 32221 ft | 441 kts | 235° |
| 2026-04-26 05:44 | -35.63763 | 148.95842 | 32224 ft | 441 kts | 235° |
| 2026-04-26 05:45 | -35.67279 | 148.89715 | 32226 ft | 441 kts | 235° |
| 2026-04-26 05:45 | -35.70812 | 148.83547 | 32231 ft | 441 kts | 235° |
| 2026-04-26 05:46 | -35.74343 | 148.77371 | 32239 ft | 440 kts | 235° |
| 2026-04-26 05:46 | -35.77863 | 148.71204 | 32231 ft | 439 kts | 235° |
| 2026-04-26 05:47 | -35.81342 | 148.65096 | 32235 ft | 437 kts | 235° |
| 2026-04-26 05:47 | -35.84851 | 148.58927 | 32237 ft | 436 kts | 235° |
| 2026-04-26 05:48 | -35.88324 | 148.52810 | 32245 ft | 435 kts | 235° |
| 2026-04-26 05:48 | -35.91766 | 148.46707 | 32247 ft | 435 kts | 236° |
| 2026-04-26 05:49 | -35.96937 | 148.37496 | 32253 ft | 435 kts | 236° |
| 2026-04-26 05:50 | -36.00383 | 148.31348 | 32253 ft | 436 kts | 236° |
| 2026-04-26 05:50 | -36.03836 | 148.25178 | 32243 ft | 436 kts | 236° |
| 2026-04-26 05:51 | -36.07284 | 148.19004 | 32237 ft | 437 kts | 236° |
| 2026-04-26 05:51 | -36.10718 | 148.12846 | 32237 ft | 438 kts | 236° |
| 2026-04-26 05:52 | -36.14183 | 148.06635 | 32238 ft | 440 kts | 236° |
| 2026-04-26 05:52 | -36.17673 | 148.00390 | 32234 ft | 441 kts | 236° |
| 2026-04-26 05:53 | -36.21168 | 147.94121 | 32241 ft | 442 kts | 236° |
| 2026-04-26 05:53 | -36.24640 | 147.87880 | 32224 ft | 443 kts | 236° |
| 2026-04-26 05:54 | -36.28138 | 147.81579 | 32226 ft | 444 kts | 236° |
| 2026-04-26 05:54 | -36.31637 | 147.75267 | 32222 ft | 444 kts | 236° |
| 2026-04-26 05:55 | -36.35133 | 147.68943 | 32229 ft | 444 kts | 236° |
| 2026-04-26 05:55 | -36.38620 | 147.62617 | 32227 ft | 444 kts | 237° |
| 2026-04-26 05:56 | -36.42098 | 147.56292 | 32221 ft | 443 kts | 237° |
| 2026-04-26 05:56 | -36.45544 | 147.50014 | 32225 ft | 441 kts | 237° |
| 2026-04-26 05:57 | -36.48996 | 147.43715 | 32223 ft | 441 kts | 237° |
| 2026-04-26 05:57 | -36.52439 | 147.37420 | 32222 ft | 440 kts | 237° |
| 2026-04-26 05:58 | -36.55878 | 147.31120 | 32220 ft | 439 kts | 237° |
| 2026-04-26 05:58 | -36.59304 | 147.24831 | 32228 ft | 439 kts | 237° |
| 2026-04-26 05:59 | -36.62735 | 147.18524 | 32220 ft | 440 kts | 237° |
| 2026-04-26 05:59 | -36.66164 | 147.12206 | 32227 ft | 440 kts | 237° |
| 2026-04-26 06:00 | -36.69600 | 147.05866 | 32223 ft | 442 kts | 238° |
| 2026-04-26 06:00 | -36.73026 | 146.99540 | 32229 ft | 443 kts | 238° |
| 2026-04-26 06:01 | -36.76477 | 146.93165 | 31885 ft | 441 kts | 238° |
| 2026-04-26 06:01 | -36.78174 | 146.90027 | 31567 ft | 433 kts | 238° |
| 2026-04-26 06:01 | -36.79854 | 146.86916 | 31135 ft | 430 kts | 238° |
| 2026-04-26 06:01 | -36.81515 | 146.83836 | 30723 ft | 426 kts | 238° |
| 2026-04-26 06:02 | -36.83165 | 146.80770 | 30301 ft | 424 kts | 238° |
| 2026-04-26 06:02 | -36.84803 | 146.77727 | 29811 ft | 421 kts | 238° |
| 2026-04-26 06:02 | -36.86433 | 146.74697 | 29352 ft | 418 kts | 238° |
| 2026-04-26 06:02 | -36.88044 | 146.71699 | 28905 ft | 414 kts | 238° |
| 2026-04-26 06:03 | -36.89623 | 146.68759 | 28475 ft | 411 kts | 238° |
| 2026-04-26 06:03 | -36.91206 | 146.65806 | 28047 ft | 408 kts | 238° |
| 2026-04-26 06:03 | -36.92779 | 146.62871 | 27611 ft | 405 kts | 238° |
| 2026-04-26 06:03 | -36.94349 | 146.59938 | 27207 ft | 410 kts | 238° |
| 2026-04-26 06:04 | -36.95946 | 146.56949 | 26794 ft | 417 kts | 238° |
| 2026-04-26 06:04 | -36.97564 | 146.53920 | 26348 ft | 418 kts | 238° |
| 2026-04-26 06:04 | -36.99177 | 146.50900 | 25894 ft | 416 kts | 238° |
| 2026-04-26 06:04 | -37.00776 | 146.47903 | 25462 ft | 413 kts | 239° |
| 2026-04-26 06:05 | -37.02363 | 146.44926 | 25033 ft | 410 kts | 239° |
| 2026-04-26 06:05 | -37.03941 | 146.41963 | 24599 ft | 408 kts | 239° |
| 2026-04-26 06:05 | -37.05512 | 146.39011 | 24156 ft | 406 kts | 239° |
| 2026-04-26 06:05 | -37.07075 | 146.36070 | 23715 ft | 404 kts | 239° |
| 2026-04-26 06:06 | -37.08107 | 146.34127 | 23370 ft | 403 kts | 239° |
| 2026-04-26 06:06 | -37.09655 | 146.31208 | 22839 ft | 402 kts | 239° |
| 2026-04-26 06:06 | -37.11200 | 146.28291 | 22380 ft | 399 kts | 239° |
| 2026-04-26 06:06 | -37.13235 | 146.24442 | 21804 ft | 394 kts | 239° |
| 2026-04-26 06:07 | -37.14742 | 146.21588 | 21386 ft | 390 kts | 240° |
| 2026-04-26 06:07 | -37.16233 | 146.18763 | 20970 ft | 387 kts | 240° |
| 2026-04-26 06:07 | -37.17211 | 146.16908 | 20699 ft | 384 kts | 240° |
| 2026-04-26 06:07 | -37.18681 | 146.14118 | 20298 ft | 381 kts | 240° |
| 2026-04-26 06:08 | -37.20607 | 146.10461 | 19772 ft | 378 kts | 240° |
| 2026-04-26 06:08 | -37.21582 | 146.08605 | 19489 ft | 376 kts | 240° |
| 2026-04-26 06:08 | -37.22997 | 146.05911 | 19096 ft | 374 kts | 240° |
| 2026-04-26 06:08 | -37.24426 | 146.03190 | 18698 ft | 372 kts | 240° |
| 2026-04-26 06:09 | -37.25847 | 146.00478 | 18238 ft | 371 kts | 240° |
| 2026-04-26 06:09 | -37.27263 | 145.97779 | 17814 ft | 369 kts | 240° |
| 2026-04-26 06:09 | -37.28666 | 145.95101 | 17397 ft | 365 kts | 240° |
| 2026-04-26 06:09 | -37.30059 | 145.92441 | 17003 ft | 362 kts | 240° |
| 2026-04-26 06:10 | -37.31437 | 145.89813 | 16625 ft | 359 kts | 240° |
| 2026-04-26 06:10 | -37.32809 | 145.87202 | 16219 ft | 356 kts | 240° |
| 2026-04-26 06:10 | -37.34171 | 145.84609 | 15825 ft | 354 kts | 240° |
| 2026-04-26 06:10 | -37.35525 | 145.82031 | 15450 ft | 351 kts | 240° |
| 2026-04-26 06:11 | -37.36850 | 145.79506 | 15090 ft | 349 kts | 240° |
| 2026-04-26 06:11 | -37.38187 | 145.76956 | 14697 ft | 347 kts | 240° |
| 2026-04-26 06:11 | -37.39511 | 145.74428 | 14332 ft | 344 kts | 240° |
| 2026-04-26 06:11 | -37.40823 | 145.71918 | 13958 ft | 342 kts | 240° |
| 2026-04-26 06:12 | -37.42127 | 145.69424 | 13547 ft | 340 kts | 240° |
| 2026-04-26 06:12 | -37.43420 | 145.66949 | 13160 ft | 337 kts | 240° |
| 2026-04-26 06:12 | -37.44703 | 145.64492 | 12770 ft | 333 kts | 240° |
| 2026-04-26 06:12 | -37.45991 | 145.62104 | 12494 ft | 327 kts | 237° |
| 2026-04-26 06:13 | -37.47317 | 145.59829 | 12167 ft | 325 kts | 236° |
| 2026-04-26 06:13 | -37.48669 | 145.57547 | 11817 ft | 324 kts | 236° |
| 2026-04-26 06:13 | -37.50008 | 145.55280 | 11453 ft | 322 kts | 236° |
| 2026-04-26 06:13 | -37.51333 | 145.53020 | 11103 ft | 319 kts | 236° |
| 2026-04-26 06:14 | -37.52648 | 145.50760 | 10767 ft | 317 kts | 236° |
| 2026-04-26 06:14 | -37.53934 | 145.48549 | 10638 ft | 308 kts | 236° |
| 2026-04-26 06:14 | -37.55190 | 145.46385 | 10394 ft | 304 kts | 236° |
| 2026-04-26 06:14 | -37.56423 | 145.44258 | 10236 ft | 297 kts | 237° |
| 2026-04-26 06:15 | -37.57622 | 145.42182 | 10100 ft | 288 kts | 237° |
| 2026-04-26 06:15 | -37.58775 | 145.40193 | 9971 ft | 281 kts | 237° |
| 2026-04-26 06:15 | -37.59911 | 145.38234 | 9675 ft | 279 kts | 236° |
| 2026-04-26 06:15 | -37.61054 | 145.36254 | 9363 ft | 277 kts | 237° |
| 2026-04-26 06:16 | -37.62186 | 145.34287 | 9064 ft | 275 kts | 237° |
| 2026-04-26 06:16 | -37.63312 | 145.32342 | 8778 ft | 274 kts | 238° |
| 2026-04-26 06:16 | -37.64436 | 145.30396 | 8475 ft | 273 kts | 237° |
| 2026-04-26 06:16 | -37.65552 | 145.28462 | 8207 ft | 272 kts | 237° |
| 2026-04-26 06:17 | -37.66666 | 145.26527 | 7933 ft | 271 kts | 237° |
| 2026-04-26 06:17 | -37.67777 | 145.24598 | 7654 ft | 271 kts | 237° |
| 2026-04-26 06:17 | -37.68884 | 145.22677 | 7380 ft | 271 kts | 237° |
| 2026-04-26 06:17 | -37.69988 | 145.20759 | 7108 ft | 268 kts | 238° |
| 2026-04-26 06:18 | -37.71059 | 145.18898 | 6830 ft | 263 kts | 237° |
| 2026-04-26 06:18 | -37.72123 | 145.17048 | 6560 ft | 257 kts | 238° |
| 2026-04-26 06:18 | -37.73166 | 145.15234 | 6285 ft | 251 kts | 237° |
| 2026-04-26 06:18 | -37.74181 | 145.13467 | 6068 ft | 246 kts | 238° |
| 2026-04-26 06:19 | -37.75169 | 145.11747 | 5980 ft | 238 kts | 238° |
| 2026-04-26 06:19 | -37.76127 | 145.10079 | 5871 ft | 230 kts | 238° |
| 2026-04-26 06:19 | -37.77069 | 145.08433 | 5653 ft | 234 kts | 238° |
| 2026-04-26 06:19 | -37.78030 | 145.06750 | 5443 ft | 239 kts | 238° |
| 2026-04-26 06:20 | -37.79005 | 145.05048 | 5199 ft | 238 kts | 238° |
| 2026-04-26 06:20 | -37.79961 | 145.03378 | 4972 ft | 237 kts | 238° |
| 2026-04-26 06:20 | -37.80928 | 145.01685 | 4732 ft | 237 kts | 239° |
| 2026-04-26 06:20 | -37.81588 | 144.99829 | 4517 ft | 228 kts | 261° |
| 2026-04-26 06:21 | -37.81901 | 144.97892 | 4365 ft | 224 kts | 261° |
| 2026-04-26 06:21 | -37.82230 | 144.95983 | 4175 ft | 222 kts | 260° |
| 2026-04-26 06:21 | -37.82558 | 144.94069 | 3923 ft | 222 kts | 262° |
| 2026-04-26 06:21 | -37.82810 | 144.92147 | 3663 ft | 218 kts | 264° |
| 2026-04-26 06:22 | -37.83035 | 144.90291 | 3421 ft | 208 kts | 264° |
| 2026-04-26 06:22 | -37.82926 | 144.88550 | 3169 ft | 194 kts | 296° |
| 2026-04-26 06:22 | -37.82149 | 144.87256 | 2980 ft | 182 kts | 320° |
| 2026-04-26 06:22 | -37.81077 | 144.86500 | 2763 ft | 174 kts | 342° |
| 2026-04-26 06:23 | -37.79901 | 144.86181 | 2608 ft | 174 kts | 348° |
| 2026-04-26 06:23 | -37.78716 | 144.85940 | 2373 ft | 167 kts | 349° |
| 2026-04-26 06:23 | -37.77599 | 144.85738 | 2139 ft | 157 kts | 350° |
| 2026-04-26 06:23 | -37.76549 | 144.85548 | 1940 ft | 151 kts | 352° |
| 2026-04-26 06:24 | -37.75517 | 144.85361 | 1772 ft | 145 kts | 351° |
| 2026-04-26 06:24 | -37.74536 | 144.85182 | 1581 ft | 140 kts | 350° |
| 2026-04-26 06:24 | -37.73579 | 144.85007 | 1394 ft | 138 kts | 352° |
| 2026-04-26 06:24 | -37.72614 | 144.84834 | 1221 ft | 143 kts | 352° |
| 2026-04-26 06:25 | -37.71621 | 144.84653 | 1023 ft | 142 kts | 354° |
| 2026-04-26 06:25 | -37.70627 | 144.84477 | 813 ft | 146 kts | 353° |
| 2026-04-26 06:25 | -37.69608 | 144.84294 | 600 ft | 149 kts | 354° |
| 2026-04-26 06:25 | -37.68620 | 144.84108 | 403 ft | 136 kts | 354° |
| 2026-04-26 06:26 | -37.67765 | 144.83953 | 360 ft | 103 kts | 351° |
| 2026-04-26 06:26 | -37.67273 | 144.83858 | 375 ft | 40 kts | 352° |
| 2026-04-26 06:26 | -37.67071 | 144.83833 | 383 ft | 21 kts | 3° |
| 2026-04-26 06:26 | -37.66956 | 144.83858 | 386 ft | 16 kts | 16° |
| 2026-04-26 06:27 | -37.66868 | 144.83900 | 389 ft | 13 kts | 21° |
| 2026-04-26 06:27 | -37.66785 | 144.83941 | 392 ft | 13 kts | 22° |
| 2026-04-26 06:27 | -37.66726 | 144.84016 | 394 ft | 12 kts | 67° |
| 2026-04-26 06:27 | -37.66710 | 144.84124 | 393 ft | 14 kts | 80° |
| 2026-04-26 06:28 | -37.66695 | 144.84253 | 395 ft | 16 kts | 81° |
| 2026-04-26 06:28 | -37.66680 | 144.84384 | 396 ft | 15 kts | 82° |
| 2026-04-26 06:28 | -37.66665 | 144.84511 | 398 ft | 14 kts | 81° |
| 2026-04-26 06:28 | -37.66650 | 144.84632 | 399 ft | 14 kts | 81° |
| 2026-04-26 06:29 | -37.66639 | 144.84731 | 401 ft | 9 kts | 82° |
| 2026-04-26 06:29 | -37.66653 | 144.84792 | 398 ft | 7 kts | 134° |
| 2026-04-26 06:29 | -37.66684 | 144.84830 | 399 ft | 5 kts | 112° |
| 2026-04-26 06:29 | -37.66684 | 144.84856 | 400 ft | 2 kts | 84° |
| 2026-04-26 06:30 | -37.66683 | 144.84874 | 400 ft | 2 kts | 83° |
| 2026-04-26 06:30 | -37.66681 | 144.84889 | 400 ft | 1 kts | 82° |
| 2026-04-26 06:30 | -37.66680 | 144.84896 | 400 ft | 1 kts | 82° |
| 2026-04-26 06:30 | -37.66680 | 144.84897 | 400 ft | 0 kts | 82° |